createdAt,value
2019-05-11T00:01:46.805Z,93.00
2019-05-11T00:04:14.328Z,92.80
2019-05-11T00:06:41.889Z,92.30
2019-05-11T00:09:09.369Z,93.20
2019-05-11T00:11:36.903Z,93.20
2019-05-11T00:14:06.143Z,93.20
2019-05-11T00:16:34.218Z,93.60
2019-05-11T00:19:01.940Z,93.30
2019-05-11T00:21:29.623Z,93.70
2019-05-11T00:23:57.111Z,94.10
2019-05-11T00:26:24.742Z,94.30
2019-05-11T00:28:52.217Z,94.30
2019-05-11T00:31:19.922Z,94.10
2019-05-11T00:33:47.579Z,93.90
2019-05-11T00:36:15.041Z,94.00
2019-05-11T00:38:42.474Z,94.20
2019-05-11T00:41:10.093Z,94.50
2019-05-11T00:43:37.812Z,94.00
2019-05-11T00:46:05.291Z,93.80
2019-05-11T00:48:32.917Z,93.90
2019-05-11T00:51:00.454Z,94.00
2019-05-11T00:53:28.104Z,94.10
2019-05-11T00:55:55.614Z,94.40
2019-05-11T00:58:23.152Z,94.70
2019-05-11T01:01:18.177Z,94.90
2019-05-11T01:03:49.947Z,94.70
2019-05-11T01:06:17.435Z,94.10
2019-05-11T01:08:45.282Z,94.20
2019-05-11T01:11:15.929Z,93.50
2019-05-11T01:13:43.666Z,93.30
2019-05-11T01:16:11.262Z,93.70
2019-05-11T01:18:38.715Z,93.80
2019-05-11T01:21:06.190Z,93.70
2019-05-11T01:23:33.757Z,94.00
2019-05-11T01:26:02.519Z,94.20
2019-05-11T01:28:30.086Z,93.60
2019-05-11T01:30:57.664Z,93.20
2019-05-11T01:33:25.119Z,93.30
2019-05-11T01:35:52.697Z,93.90
2019-05-11T01:38:20.191Z,94.10
2019-05-11T01:40:58.193Z,94.20
2019-05-11T01:43:17.085Z,94.50
2019-05-11T01:45:44.579Z,94.70
2019-05-11T01:48:12.034Z,94.70
2019-05-11T01:50:39.603Z,94.50
2019-05-11T01:53:07.187Z,94.50
2019-05-11T01:55:34.630Z,94.70
2019-05-11T01:58:02.159Z,94.60
2019-05-11T02:00:30.027Z,94.60
2019-05-11T02:03:21.218Z,94.50
2019-05-11T02:05:52.375Z,94.50
2019-05-11T02:08:19.861Z,94.30
2019-05-11T02:10:47.369Z,93.80
2019-05-11T02:13:14.869Z,93.50
2019-05-11T02:15:42.343Z,93.70
2019-05-11T02:18:09.828Z,94.00
2019-05-11T02:20:38.017Z,93.80
2019-05-11T02:23:05.678Z,93.70
2019-05-11T02:25:33.210Z,92.90
2019-05-11T02:28:00.705Z,92.80
2019-05-11T02:30:28.407Z,92.10
2019-05-11T02:32:55.857Z,92.20
2019-05-11T02:35:23.474Z,92.10
2019-05-11T02:37:50.952Z,92.50
2019-05-11T02:40:20.190Z,92.40
2019-05-11T02:42:47.723Z,93.30
2019-05-11T02:45:19.959Z,93.60
2019-05-11T02:47:47.362Z,93.30
2019-05-11T02:50:14.840Z,93.50
2019-05-11T02:52:42.264Z,93.40
2019-05-11T02:55:10.140Z,93.30
2019-05-11T02:57:37.834Z,92.40
2019-05-11T03:00:06.494Z,92.60
2019-05-11T03:02:34.116Z,93.00
2019-05-11T03:05:01.671Z,93.60
2019-05-11T03:07:30.483Z,93.60
2019-05-11T03:09:57.960Z,93.60
2019-05-11T03:12:25.427Z,93.60
2019-05-11T03:14:52.951Z,93.80
2019-05-11T03:17:24.090Z,93.30
2019-05-11T03:19:51.614Z,93.10
2019-05-11T03:22:19.059Z,93.30
2019-05-11T03:24:47.504Z,93.70
2019-05-11T03:27:14.981Z,93.80
2019-05-11T03:29:42.448Z,94.00
2019-05-11T03:32:09.958Z,94.00
2019-05-11T03:34:39.085Z,94.20
2019-05-11T03:37:06.900Z,93.50
2019-05-11T03:39:34.393Z,93.70
2019-05-11T03:42:13.884Z,93.90
2019-05-11T03:44:31.747Z,93.20
2019-05-11T03:46:59.245Z,93.00
2019-05-11T03:49:26.837Z,92.40
2019-05-11T03:51:54.365Z,91.80
2019-05-11T03:54:22.453Z,91.50
2019-05-11T03:56:50.106Z,90.80
2019-05-11T03:59:17.721Z,90.60
2019-05-11T04:01:45.304Z,89.90
2019-05-11T04:04:16.376Z,89.70
2019-05-11T04:06:42.663Z,88.60
2019-05-11T04:09:10.313Z,87.50
2019-05-11T04:11:37.987Z,87.90
2019-05-11T04:14:08.532Z,86.80
2019-05-11T04:16:36.273Z,86.90
2019-05-11T04:19:03.916Z,86.40
2019-05-11T04:21:31.403Z,86.80
2019-05-11T04:23:58.959Z,85.80
2019-05-11T04:26:26.484Z,85.60
2019-05-11T04:28:54.006Z,85.80
2019-05-11T04:31:21.563Z,86.00
2019-05-11T04:33:49.122Z,85.80
2019-05-11T04:36:16.788Z,85.80
2019-05-11T04:38:44.243Z,84.70
2019-05-11T04:41:11.789Z,84.90
2019-05-11T04:43:39.319Z,84.70
2019-05-11T04:46:06.838Z,84.70
2019-05-11T04:48:34.527Z,84.90
2019-05-11T04:51:01.987Z,84.50
2019-05-11T04:53:38.870Z,84.00
2019-05-11T04:56:07.010Z,84.00
2019-05-11T04:58:35.202Z,84.10
2019-05-11T05:01:02.865Z,83.00
2019-05-11T05:03:40.225Z,82.50
2019-05-11T05:06:20.830Z,82.80
2019-05-11T05:08:29.202Z,83.00
2019-05-11T05:10:58.470Z,83.20
2019-05-11T05:13:29.437Z,83.00
2019-05-11T05:15:55.579Z,82.80
2019-05-11T05:18:23.283Z,83.00
2019-05-11T05:20:51.917Z,83.00
2019-05-11T05:23:19.487Z,83.20
2019-05-11T05:25:46.972Z,82.50
2019-05-11T05:28:14.498Z,83.20
2019-05-11T05:30:41.957Z,81.90
2019-05-11T05:33:09.390Z,82.10
2019-05-11T05:35:36.934Z,83.00
2019-05-11T05:38:04.829Z,82.80
2019-05-11T05:40:32.418Z,83.00
2019-05-11T05:43:01.730Z,83.60
2019-05-11T05:45:29.222Z,82.50
2019-05-11T05:47:56.834Z,82.80
2019-05-11T05:50:34.125Z,83.00
2019-05-11T05:53:04.433Z,84.00
2019-05-11T05:55:33.429Z,83.40
2019-05-11T05:58:04.295Z,82.50
2019-05-11T06:00:31.923Z,83.60
2019-05-11T06:03:00.923Z,84.00
2019-05-11T06:05:28.399Z,84.30
2019-05-11T06:07:56.049Z,84.10
2019-05-11T06:10:23.519Z,84.70
2019-05-11T06:12:51.057Z,85.10
2019-05-11T06:15:18.545Z,85.60
2019-05-11T06:17:46.184Z,86.00
2019-05-11T06:20:13.801Z,86.40
2019-05-11T06:22:41.308Z,87.50
2019-05-11T06:25:08.777Z,86.40
2019-05-11T06:27:36.297Z,87.30
2019-05-11T06:30:04.334Z,86.80
2019-05-11T06:32:31.851Z,86.40
2019-05-11T06:34:59.402Z,86.90
2019-05-11T06:37:27.975Z,87.50
2019-05-11T06:39:55.611Z,88.20
2019-05-11T06:42:23.119Z,88.80
2019-05-11T06:44:50.599Z,89.60
2019-05-11T06:47:18.099Z,89.70
2019-05-11T06:49:46.588Z,90.10
2019-05-11T06:52:14.191Z,90.20
2019-05-11T06:54:41.702Z,90.40
2019-05-11T06:57:09.183Z,90.30
2019-05-11T06:59:36.663Z,90.10
2019-05-11T07:02:04.217Z,89.20
2019-05-11T07:04:31.675Z,87.50
2019-05-11T07:06:59.189Z,84.70
2019-05-11T07:09:26.690Z,84.50
2019-05-11T07:11:54.259Z,83.00
2019-05-11T07:14:21.827Z,82.50
2019-05-11T07:16:49.452Z,82.50
2019-05-11T07:19:17.241Z,82.80
2019-05-11T07:21:44.931Z,82.70
2019-05-11T07:24:13.400Z,82.70
2019-05-11T07:26:41.076Z,83.00
2019-05-11T07:29:08.629Z,83.40
2019-05-11T07:31:36.133Z,82.50
2019-05-11T07:34:03.886Z,81.50
2019-05-11T07:36:31.382Z,81.20
2019-05-11T07:38:58.847Z,81.00
2019-05-11T07:41:28.115Z,79.30
2019-05-11T07:43:55.645Z,78.90
2019-05-11T07:46:23.254Z,80.20
2019-05-11T07:48:50.852Z,82.10
2019-05-11T07:51:18.450Z,80.80
2019-05-11T07:53:48.463Z,79.10
2019-05-11T07:56:15.440Z,78.00
2019-05-11T07:58:42.950Z,78.20
2019-05-11T08:01:10.432Z,76.50
2019-05-11T08:04:07.580Z,77.10
2019-05-11T08:06:35.802Z,76.10
2019-05-11T08:09:08.307Z,74.80
2019-05-11T08:11:35.474Z,74.60
2019-05-11T08:14:04.034Z,73.30
2019-05-11T08:16:31.543Z,72.40
2019-05-11T08:18:59.168Z,70.00
2019-05-11T08:21:28.342Z,69.10
2019-05-11T08:23:58.548Z,71.10
2019-05-11T08:26:28.073Z,65.50
2019-05-11T08:28:55.054Z,65.90
2019-05-11T08:31:22.546Z,62.90
2019-05-11T08:33:51.071Z,62.50
2019-05-11T08:36:18.689Z,60.70
2019-05-11T08:38:48.200Z,58.60
2019-05-11T08:41:15.519Z,59.20
2019-05-11T08:43:43.041Z,59.00
2019-05-11T08:46:10.587Z,60.30
2019-05-11T08:48:38.860Z,60.10
2019-05-11T08:51:08.442Z,58.70
2019-05-11T08:53:38.784Z,59.20
2019-05-11T08:56:08.898Z,56.10
2019-05-11T08:58:38.028Z,55.40
2019-05-11T09:01:05.351Z,56.00
2019-05-11T09:03:32.831Z,55.40
2019-05-11T09:06:00.367Z,55.50
2019-05-11T09:08:28.450Z,56.00
2019-05-11T09:10:58.260Z,55.70
2019-05-11T09:13:27.939Z,55.10
2019-05-11T09:15:55.706Z,51.00
2019-05-11T09:18:23.506Z,50.70
2019-05-11T09:20:51.331Z,49.70
2019-05-11T09:23:33.630Z,50.50
2019-05-11T09:25:49.325Z,54.50
2019-05-11T09:28:18.105Z,58.70
2019-05-11T09:30:48.206Z,62.20
2019-05-11T09:33:18.511Z,61.20
2019-05-11T09:35:49.978Z,58.30
2019-05-11T09:38:14.911Z,57.70
2019-05-11T09:40:42.367Z,54.90
2019-05-11T09:43:09.850Z,56.30
2019-05-11T09:45:47.936Z,54.30
2019-05-11T09:48:08.651Z,55.20
2019-05-11T09:50:38.640Z,52.90
2019-05-11T09:53:05.703Z,53.50
2019-05-11T09:55:33.252Z,46.50
2019-05-11T09:58:00.705Z,47.80
2019-05-11T10:00:29.622Z,45.80
2019-05-11T10:02:57.761Z,40.80
2019-05-11T10:05:25.361Z,36.80
2019-05-11T10:07:53.445Z,35.40
2019-05-11T10:10:20.941Z,36.00
2019-05-11T10:13:08.226Z,35.00
2019-05-11T10:15:38.365Z,36.80
2019-05-11T10:18:05.305Z,31.50
2019-05-11T10:20:32.861Z,34.10
2019-05-11T10:23:00.589Z,31.90
2019-05-11T10:25:28.647Z,31.60
2019-05-11T10:27:57.994Z,31.30
2019-05-11T10:30:27.824Z,30.20
2019-05-11T10:32:57.609Z,29.90
2019-05-11T10:35:24.561Z,28.50
2019-05-11T10:37:52.009Z,28.90
2019-05-11T10:40:19.478Z,29.60
2019-05-11T10:42:48.381Z,30.10
2019-05-11T10:45:17.999Z,30.90
2019-05-11T10:47:53.909Z,33.30
2019-05-11T10:50:20.926Z,33.40
2019-05-11T10:52:48.652Z,34.10
2019-05-11T10:55:19.014Z,35.40
2019-05-11T10:57:45.687Z,37.10
2019-05-11T11:00:15.050Z,38.20
2019-05-11T11:05:12.849Z,39.70
2019-05-11T11:07:40.355Z,35.00
2019-05-11T11:10:08.877Z,33.40
2019-05-11T11:12:38.520Z,33.40
2019-05-11T11:15:07.747Z,32.50
2019-05-11T11:17:37.981Z,33.00
2019-05-11T11:20:05.081Z,29.00
2019-05-11T11:22:39.414Z,30.90
2019-05-11T11:25:01.969Z,33.00
2019-05-11T11:27:30.551Z,32.70
2019-05-11T11:29:58.256Z,31.60
2019-05-11T11:32:27.910Z,32.80
2019-05-11T11:34:57.591Z,32.70
2019-05-11T11:37:24.955Z,33.40
2019-05-11T11:39:52.448Z,31.90
2019-05-11T11:42:19.927Z,32.40
2019-05-11T11:44:48.387Z,32.40
2019-05-11T11:47:20.984Z,30.90
2019-05-11T11:49:47.537Z,30.20
2019-05-11T11:52:15.099Z,31.00
2019-05-11T11:54:42.660Z,30.90
2019-05-11T11:57:10.291Z,31.50
2019-05-11T11:59:38.569Z,31.20
2019-05-11T12:02:08.563Z,32.40
2019-05-11T12:04:38.701Z,32.80
2019-05-11T12:07:05.422Z,33.40
2019-05-11T12:09:33.099Z,34.40
2019-05-11T12:12:00.654Z,34.40
2019-05-11T12:14:28.466Z,35.30
2019-05-11T12:17:04.860Z,36.20
2019-05-11T12:19:27.713Z,37.10
2019-05-11T12:21:54.817Z,35.40
2019-05-11T12:24:22.270Z,37.60
2019-05-11T12:26:49.706Z,35.30
2019-05-11T12:29:18.892Z,35.10
2019-05-11T12:31:48.506Z,36.30
2019-05-11T12:34:17.768Z,36.50
2019-05-11T12:36:45.369Z,34.20
2019-05-11T12:39:12.845Z,32.50
2019-05-11T12:41:40.357Z,32.80
2019-05-11T12:44:08.284Z,31.50
2019-05-11T12:46:37.360Z,33.90
2019-05-11T12:49:07.331Z,30.20
2019-05-11T12:51:34.994Z,27.70
2019-05-11T12:54:02.501Z,27.70
2019-05-11T12:56:29.999Z,28.20
2019-05-11T12:58:58.229Z,29.00
2019-05-11T13:01:25.802Z,27.10
2019-05-11T13:03:53.285Z,27.30
2019-05-11T13:06:20.834Z,27.30
2019-05-11T13:08:48.414Z,28.50
2019-05-11T13:11:18.422Z,29.80
2019-05-11T13:13:48.156Z,26.40
2019-05-11T13:16:14.981Z,27.10
2019-05-11T13:18:43.548Z,28.40
2019-05-11T13:21:11.607Z,27.90
2019-05-11T13:23:39.043Z,25.40
2019-05-11T13:26:08.577Z,27.60
2019-05-11T13:28:37.836Z,27.10
2019-05-11T13:31:05.605Z,27.40
2019-05-11T13:33:33.121Z,28.70
2019-05-11T13:36:00.743Z,28.80
2019-05-11T13:38:28.452Z,29.70
2019-05-11T13:40:55.988Z,31.60
2019-05-11T13:43:23.456Z,31.50
2019-05-11T13:45:50.956Z,31.60
2019-05-11T13:48:18.487Z,33.10
2019-05-11T13:50:47.948Z,44.30
2019-05-11T13:53:15.528Z,45.00
2019-05-11T13:55:43.387Z,51.30
2019-05-11T13:58:10.951Z,55.50
2019-05-11T14:00:38.937Z,62.20
2019-05-11T14:03:07.951Z,65.90
2019-05-11T14:05:37.704Z,67.00
2019-05-11T14:08:04.963Z,66.30
2019-05-11T14:10:32.423Z,70.00
2019-05-11T14:13:00.006Z,73.50
2019-05-11T14:15:28.464Z,73.20
2019-05-11T14:18:05.676Z,72.80
2019-05-11T14:20:25.630Z,73.20
2019-05-11T14:22:53.149Z,73.00
2019-05-11T14:25:20.765Z,75.90
2019-05-11T14:27:48.385Z,72.20
2019-05-11T14:30:16.146Z,73.70
2019-05-11T14:32:43.823Z,68.90
2019-05-11T14:35:12.455Z,61.20
2019-05-11T14:37:40.331Z,62.30
2019-05-11T14:40:08.801Z,59.90
2019-05-11T14:42:38.142Z,57.80
2019-05-11T14:45:08.480Z,60.10
2019-05-11T14:47:38.402Z,64.60
2019-05-11T14:50:08.416Z,68.70
2019-05-11T14:52:35.510Z,69.40
2019-05-11T14:55:03.145Z,74.30
2019-05-11T14:57:31.702Z,78.20
2019-05-11T14:59:59.171Z,79.30
2019-05-11T15:02:45.043Z,79.70
2019-05-11T15:05:13.147Z,79.30
2019-05-11T15:07:40.912Z,80.60
2019-05-11T15:10:10.255Z,83.20
2019-05-11T15:12:38.029Z,83.20
2019-05-11T15:15:07.980Z,86.40
2019-05-11T15:17:35.695Z,86.80
2019-05-11T15:20:03.750Z,87.70
2019-05-11T15:22:31.293Z,90.30
2019-05-11T15:24:58.927Z,88.60
2019-05-11T15:27:28.778Z,90.40
2019-05-11T15:29:55.813Z,89.90
2019-05-11T15:32:23.491Z,90.10
2019-05-11T15:34:50.958Z,90.90
2019-05-11T15:37:18.478Z,90.40
2019-05-11T15:39:48.227Z,89.60
2019-05-11T15:42:19.550Z,87.90
2019-05-11T15:44:48.307Z,86.80
2019-05-11T15:47:15.343Z,85.50
2019-05-11T15:49:42.917Z,85.10
2019-05-11T15:52:10.506Z,81.90
2019-05-11T15:54:38.526Z,79.70
2019-05-11T15:57:08.374Z,79.70
2019-05-11T15:59:35.686Z,80.20
2019-05-11T16:02:03.299Z,81.20
2019-05-11T16:04:31.052Z,82.30
2019-05-11T16:07:00.145Z,81.90
2019-05-11T16:09:28.994Z,84.90
2019-05-11T16:11:56.799Z,82.70
2019-05-11T16:14:24.250Z,83.60
2019-05-11T16:16:52.009Z,85.30
2019-05-11T16:19:19.573Z,86.90
2019-05-11T16:21:47.157Z,86.40
2019-05-11T16:24:14.695Z,87.70
2019-05-11T16:26:42.302Z,87.50
2019-05-11T16:29:11.502Z,86.60
2019-05-11T16:31:39.301Z,86.80
2019-05-11T16:34:08.024Z,86.40
2019-05-11T16:36:35.694Z,85.10
2019-05-11T16:39:09.986Z,86.40
2019-05-11T16:41:38.227Z,84.10
2019-05-11T16:44:07.685Z,84.10
2019-05-11T16:46:34.794Z,85.50
2019-05-11T16:49:02.345Z,85.60
2019-05-11T16:51:29.787Z,85.30
2019-05-11T16:53:58.732Z,85.60
2019-05-11T16:56:26.328Z,87.30
2019-05-11T16:58:54.894Z,89.00
2019-05-11T17:01:22.651Z,89.90
2019-05-11T17:03:50.131Z,90.50
2019-05-11T17:06:19.743Z,90.50
2019-05-11T17:08:48.664Z,91.40
2019-05-11T17:11:18.479Z,91.30
2019-05-11T17:13:48.170Z,91.70
2019-05-11T17:16:15.236Z,91.80
2019-05-11T17:18:43.783Z,91.90
2019-05-11T17:21:11.291Z,91.80
2019-05-11T17:23:38.786Z,92.80
2019-05-11T17:26:08.531Z,93.80
2019-05-11T17:28:37.889Z,93.10
2019-05-11T17:31:05.093Z,91.90
2019-05-11T17:33:32.647Z,92.20
2019-05-11T17:36:00.128Z,93.10
2019-05-11T17:38:28.163Z,93.20
2019-05-11T17:40:57.709Z,93.50
2019-05-11T17:43:25.219Z,93.40
2019-05-11T17:45:52.839Z,93.50
2019-05-11T17:48:20.345Z,93.00
2019-05-11T17:50:47.987Z,92.80
2019-05-11T17:53:17.738Z,93.00
2019-05-11T17:55:45.020Z,93.40
2019-05-11T17:58:12.490Z,93.90
2019-05-11T18:00:40.149Z,94.40
2019-05-11T18:03:11.244Z,94.50
2019-05-11T18:05:38.633Z,94.60
2019-05-11T18:08:08.561Z,94.90
2019-05-11T18:10:38.308Z,94.60
2019-05-11T18:13:05.382Z,94.50
2019-05-11T18:15:32.853Z,94.70
2019-05-11T18:18:00.340Z,95.30
2019-05-11T18:20:28.631Z,95.40
2019-05-11T18:22:57.777Z,94.50
2019-05-11T18:25:25.462Z,94.90
2019-05-11T18:27:53.008Z,94.80
2019-05-11T18:30:20.714Z,95.10
2019-05-11T18:32:49.188Z,94.20
2019-05-11T18:35:19.351Z,94.60
2019-05-11T18:37:47.749Z,95.00
2019-05-11T18:40:18.645Z,95.20
2019-05-11T18:42:48.485Z,95.10
2019-05-11T18:45:15.534Z,95.70
2019-05-11T18:47:43.463Z,95.20
2019-05-11T18:50:11.170Z,95.30
2019-05-11T18:52:38.680Z,95.60
2019-05-11T18:55:08.357Z,96.10
2019-05-11T18:57:38.406Z,96.20
2019-05-11T19:00:08.175Z,96.30
2019-05-11T19:02:38.496Z,96.30
2019-05-11T19:05:05.759Z,96.20
2019-05-11T19:07:34.370Z,96.10
2019-05-11T19:10:01.838Z,96.40
2019-05-11T19:12:29.471Z,96.50
2019-05-11T19:14:58.714Z,96.40
2019-05-11T19:17:28.856Z,96.20
2019-05-11T19:19:57.946Z,96.00
2019-05-11T19:22:25.477Z,96.40
2019-05-11T19:24:53.173Z,96.30
2019-05-11T19:27:20.902Z,96.00
2019-05-11T19:29:48.502Z,96.20
2019-05-11T19:32:18.985Z,96.40
2019-05-11T19:34:47.698Z,96.80
2019-05-11T19:37:15.224Z,96.70
2019-05-11T19:39:42.896Z,97.10
2019-05-11T19:42:11.599Z,97.20
2019-05-11T19:44:39.336Z,97.20
2019-05-11T19:47:08.952Z,97.10
2019-05-11T19:49:38.409Z,97.20
2019-05-11T19:52:08.385Z,97.20
2019-05-11T19:54:38.003Z,97.30
2019-05-11T19:57:05.355Z,97.40
2019-05-11T19:59:32.963Z,97.40
2019-05-11T20:02:00.481Z,97.40
2019-05-11T20:04:28.415Z,97.40
2019-05-11T20:06:58.267Z,97.40
2019-05-11T20:09:28.158Z,97.40
2019-05-11T20:11:55.358Z,97.40
2019-05-11T20:14:22.892Z,97.40
2019-05-11T20:16:50.494Z,97.40
2019-05-11T20:19:18.726Z,97.40
2019-05-11T20:21:48.444Z,97.40
2019-05-11T20:24:18.513Z,97.40
2019-05-11T20:26:45.749Z,97.40
2019-05-11T20:29:13.623Z,96.90
2019-05-11T20:31:41.332Z,96.80
2019-05-11T20:34:08.999Z,97.30
2019-05-11T20:36:36.725Z,97.20
2019-05-11T20:39:06.622Z,97.30
2019-05-11T20:41:38.303Z,97.40
2019-05-11T20:44:05.732Z,96.90
2019-05-11T20:46:38.267Z,96.90
2019-05-11T20:49:06.226Z,96.60
2019-05-11T20:51:37.008Z,96.70
2019-05-11T20:54:03.432Z,96.30
2019-05-11T20:56:31.077Z,96.80
2019-05-11T20:58:59.662Z,96.40
2019-05-11T21:01:30.286Z,96.60
2019-05-11T21:03:58.600Z,96.60
2019-05-11T21:06:29.002Z,96.50
2019-05-11T21:08:56.062Z,96.30
2019-05-11T21:11:23.833Z,96.40
2019-05-11T21:13:51.499Z,96.50
2019-05-11T21:16:19.239Z,96.70
2019-05-11T21:18:46.945Z,96.70
2019-05-11T21:21:14.949Z,96.40
2019-05-11T21:23:42.688Z,96.30
2019-05-11T21:26:11.493Z,95.90
2019-05-11T21:28:39.208Z,96.00
2019-05-11T21:31:08.027Z,96.50
2019-05-11T21:33:37.885Z,95.80
2019-05-11T21:36:05.592Z,95.80
2019-05-11T21:38:33.255Z,95.10
2019-05-11T21:41:01.008Z,95.40
2019-05-11T21:43:28.681Z,94.80
2019-05-11T21:45:58.258Z,94.90
2019-05-11T21:48:27.904Z,95.20
2019-05-11T21:50:55.396Z,94.50
2019-05-11T21:53:23.095Z,94.80
2019-05-11T21:55:50.739Z,94.80
2019-05-11T21:58:18.613Z,95.40
2019-05-11T22:00:49.792Z,95.90
2019-05-11T22:03:19.313Z,95.10
2019-05-11T22:05:48.465Z,95.20
2019-05-11T22:08:17.850Z,95.40
2019-05-11T22:10:46.065Z,95.20
2019-05-11T22:13:13.567Z,95.20
2019-05-11T22:15:41.095Z,95.50
2019-05-11T22:18:08.722Z,95.40
2019-05-11T22:20:40.549Z,95.70
2019-05-11T22:23:08.408Z,95.50
2019-05-11T22:25:38.160Z,95.60
2019-05-11T22:28:05.615Z,95.70
2019-05-11T22:30:33.204Z,95.60
2019-05-11T22:33:00.864Z,94.90
2019-05-11T22:35:28.802Z,94.60
2019-05-11T22:37:57.805Z,94.70
2019-05-11T22:40:27.786Z,95.00
2019-05-11T22:42:55.051Z,94.90
2019-05-11T22:45:22.695Z,94.50
2019-05-11T22:47:50.270Z,95.00
2019-05-11T22:50:18.609Z,95.10
2019-05-11T22:52:48.438Z,95.00
2019-05-11T22:55:18.367Z,94.70
2019-05-11T22:57:45.498Z,95.10
2019-05-11T23:00:13.298Z,94.80
2019-05-11T23:02:41.538Z,94.50
2019-05-11T23:05:09.182Z,94.40
2019-05-11T23:07:37.671Z,94.50
2019-05-11T23:10:08.631Z,94.60
2019-05-11T23:12:37.975Z,94.70
2019-05-11T23:15:11.908Z,94.90
2019-05-11T23:17:41.148Z,95.20
2019-05-11T23:20:09.945Z,95.60
2019-05-11T23:22:56.449Z,95.30
2019-05-11T23:25:18.251Z,95.10
2019-05-11T23:27:48.241Z,95.30
2019-05-11T23:30:16.185Z,94.80
2019-05-11T23:32:43.736Z,94.60
2019-05-11T23:35:11.618Z,94.40
2019-05-11T23:37:42.482Z,94.70
2019-05-11T23:40:09.286Z,94.70
2019-05-11T23:42:38.082Z,94.70
2019-05-11T23:45:08.383Z,94.70
2019-05-11T23:47:38.991Z,94.60
2019-05-11T23:50:08.033Z,94.80
2019-05-11T23:52:37.451Z,94.30
2019-05-11T23:55:04.990Z,94.60
2019-05-11T23:57:33.310Z,94.50
